Time;durP1;ratioP1;P1;durP2;ratioP2;P2;SDS_P1;SDS_P2;PMS_P1;PMS_P2;Temp;Humidity;BMP_temperature;BMP_pressure;BME280_temperature;BME280_humidity;BME280_pressure;Samples;Min_cycle;Max_cycle;Signal;HPM_P1;HPM_P2
2022/08/31 00:04:42;;;;;;;26.17;6.07;;;;;;;21.74;63.70;99835.72;10297196;28;20049;-72
2022/08/31 00:09:42;;;;;;;19.70;5.50;;;;;;;21.96;64.35;99882.50;10295348;28;20053;-72
2022/08/31 00:14:43;;;;;;;20.95;5.82;;;;;;;21.39;64.47;99797.25;10296530;28;20046;-72
2022/08/31 00:19:44;;;;;;;30.10;6.05;;;;;;;21.95;64.99;99883.53;10295336;28;20121;-72
2022/08/31 00:24:45;;;;;;;27.80;6.60;;;;;;;21.94;64.73;99886.53;10296268;28;20553;-72
2022/08/31 00:29:46;;;;;;;18.33;5.68;;;;;;;21.73;64.85;99870.06;10295880;28;20129;-72
2022/08/31 00:34:47;;;;;;;31.10;6.43;;;;;;;21.82;65.21;99892.06;10294786;28;20121;-73
2022/08/31 00:39:48;;;;;;;24.35;5.43;;;;;;;21.69;64.29;99879.75;10295995;28;20043;-72
2022/08/31 00:44:49;;;;;;;43.08;6.55;;;;;;;21.61;64.25;99893.72;10294731;28;20050;-72
2022/08/31 00:49:51;;;;;;;41.92;6.15;;;;;;;21.69;65.03;99912.19;10295272;28;20042;-72
2022/08/31 00:54:58;;;;;;;32.30;6.70;;;;;;;21.68;65.54;99909.75;10294203;28;20043;-73
2022/08/31 01:00:03;;;;;;;40.95;6.90;;;;;;;21.24;64.82;99866.44;10294043;28;20454;-72
2022/08/31 01:05:06;;;;;;;26.80;6.20;;;;;;;21.51;64.72;99917.88;10293811;28;20042;-72
2022/08/31 01:10:08;;;;;;;30.63;7.00;;;;;;;21.39;65.04;99913.44;10293783;28;20046;-72
2022/08/31 01:15:10;;;;;;;22.88;6.32;;;;;;;21.45;65.49;99927.00;10294827;28;20069;-72
2022/08/31 01:20:31;;;;;;;25.58;6.25;;;;;;;21.37;65.39;99923.69;10292352;28;20126;-72
2022/08/31 01:25:34;;;;;;;25.27;6.10;;;;;;;21.13;66.22;99906.81;10292071;28;20499;-72
2022/08/31 01:30:37;;;;;;;43.05;7.18;;;;;;;21.20;65.69;99917.44;10293724;28;20073;-72
2022/08/31 01:35:42;;;;;;;132.50;14.27;;;;;;;21.17;66.50;99917.94;10293667;28;20499;-72
2022/08/31 01:40:53;;;;;;;135.63;11.43;;;;;;;20.65;66.89;99864.25;10292989;28;20042;-72
2022/08/31 01:45:54;;;;;;;97.93;10.70;;;;;;;21.04;66.80;99927.22;10292563;28;20042;-72
2022/08/31 01:50:55;;;;;;;25.20;6.00;;;;;;;20.94;66.60;99914.38;10292466;28;20043;-72
2022/08/31 01:55:57;;;;;;;98.60;12.27;;;;;;;20.63;67.27;99879.88;10292045;28;20047;-73
2022/08/31 02:00:59;;;;;;;29.88;6.78;;;;;;;20.92;66.92;99932.72;10292444;28;20522;-72
2022/08/31 02:06:06;;;;;;;154.35;12.50;;;;;;;20.45;68.90;99864.69;10291035;28;20046;-72
2022/08/31 02:11:07;;;;;;;441.75;28.50;;;;;;;20.81;67.75;99938.19;10291595;28;20053;-72
2022/08/31 02:16:08;;;;;;;184.98;15.90;;;;;;;20.58;68.13;99893.28;10292254;28;20045;-72
2022/08/31 02:21:09;;;;;;;43.97;7.88;;;;;;;20.78;67.47;99927.88;10291084;28;20498;-72
2022/08/31 02:26:10;;;;;;;36.72;7.13;;;;;;;20.86;67.27;99931.00;10292350;28;20044;-72
2022/08/31 02:31:11;;;;;;;1132.75;90.75;;;;;;;20.93;67.78;99949.72;10290148;28;20213;-73
2022/08/31 02:36:12;;;;;;;311.17;23.35;;;;;;;20.38;68.11;99864.06;10291928;28;20181;-72
2022/08/31 02:41:13;;;;;;;217.93;18.40;;;;;;;20.83;68.17;99936.88;10291300;28;20046;-72
2022/08/31 02:46:13;;;;;;;375.15;27.83;;;;;;;20.57;68.37;99894.34;10291502;28;20039;-72
2022/08/31 02:51:14;;;;;;;295.23;21.65;;;;;;;20.44;68.61;99869.28;10290406;28;20053;-72
2022/08/31 02:56:15;;;;;;;537.75;41.53;;;;;;;20.96;68.95;99941.13;10291588;28;20047;-72
2022/08/31 03:01:16;;;;;;;556.30;44.05;;;;;;;20.70;68.73;99892.16;10289506;28;20093;-72
2022/08/31 03:06:18;;;;;;;351.50;25.83;;;;;;;21.18;69.07;99946.63;10290287;28;20043;-73
2022/08/31 03:11:19;;;;;;;55.72;8.52;;;;;;;20.65;67.19;99819.19;10290917;28;20070;-72
2022/08/31 03:16:20;;;;;;;119.20;12.70;;;;;;;21.47;66.89;99901.38;10290233;28;20058;-72
2022/08/31 03:21:21;;;;;;;82.68;11.13;;;;;;;21.62;66.71;99876.41;10291424;28;20487;-73
2022/08/31 03:26:22;;;;;;;53.00;7.05;;;;;;;22.27;64.81;99926.13;10290090;28;20035;-73
2022/08/31 03:31:24;;;;;;;37.50;7.20;;;;;;;22.10;62.64;99815.25;10289036;28;20086;-73
2022/08/31 03:36:25;;;;;;;36.35;7.63;;;;;;;23.51;60.56;99951.19;10290470;28;20133;-73
2022/08/31 03:41:26;;;;;;;57.15;8.25;;;;;;;24.11;58.54;99921.88;10289972;28;20098;-73
2022/08/31 03:46:31;;;;;;;32.90;6.75;;;;;;;25.01;55.50;99946.72;10297959;28;20442;-73
2022/08/31 03:51:32;;;;;;;95.95;9.52;;;;;;;25.80;54.54;99941.63;10296956;28;20034;-73
2022/08/31 03:56:33;;;;;;;39.40;6.85;;;;;;;26.36;51.75;99944.09;10296433;28;20039;-73
2022/08/31 04:01:35;;;;;;;68.55;8.35;;;;;;;26.68;50.44;99887.47;10295282;28;20043;-73
2022/08/31 04:06:36;;;;;;;32.30;6.10;;;;;;;27.58;48.68;99933.19;10295034;28;20400;-75
2022/08/31 04:11:43;;;;;;;35.47;6.30;;;;;;;27.82;46.25;99884.09;10289815;28;20042;-74
2022/08/31 04:16:44;;;;;;;26.50;6.50;;;;;;;28.23;46.40;99888.97;10283139;28;20495;-74
2022/08/31 04:21:46;;;;;;;27.50;6.78;;;;;;;27.98;45.02;99795.41;10293668;28;20039;-74
2022/08/31 04:26:50;;;;;;;40.83;7.53;;;;;;;28.77;43.59;99903.94;10278739;28;20582;-73
2022/08/31 04:31:51;;;;;;;40.28;8.40;;;;;;;28.62;43.65;99824.97;10278847;28;20066;-73
2022/08/31 04:36:52;;;;;;;43.42;8.85;;;;;;;29.72;42.70;99944.63;10278681;28;20039;-74
2022/08/31 04:41:53;;;;;;;59.60;10.60;;;;;;;29.46;42.65;99884.09;10284446;28;20038;-72
2022/08/31 04:46:54;;;;;;;45.47;10.27;;;;;;;28.86;41.83;99833.00;10281833;28;20479;-73
2022/08/31 04:51:55;;;;;;;47.00;11.18;;;;;;;29.15;41.30;99938.59;10293678;28;20042;-73
2022/08/31 04:56:57;;;;;;;45.95;11.45;;;;;;;28.57;41.96;99871.50;10292669;28;20486;-73
2022/08/31 05:01:59;;;;;;;40.60;10.82;;;;;;;28.83;42.15;99921.06;10294346;28;20039;-73
2022/08/31 05:07:00;;;;;;;48.17;9.50;;;;;;;28.94;42.16;99938.94;10294531;28;20038;-73
2022/08/31 05:12:01;;;;;;;36.75;9.05;;;;;;;28.67;41.80;99876.81;10294476;28;20070;-73
2022/08/31 05:17:05;;;;;;;61.83;9.95;;;;;;;29.10;41.84;99912.16;10294037;28;20085;-73
2022/08/31 05:22:06;;;;;;;37.90;9.30;;;;;;;29.29;41.08;99931.22;10293171;28;20046;-73
2022/08/31 05:27:08;;;;;;;52.38;10.43;;;;;;;29.50;41.12;99935.19;10293365;28;20053;-74
2022/08/31 05:32:09;;;;;;;34.15;9.40;;;;;;;29.74;40.52;99937.75;10293502;28;20602;-73
2022/08/31 05:37:10;;;;;;;44.83;9.48;;;;;;;29.96;40.24;99927.97;10294095;28;20130;-73
2022/08/31 05:42:14;;;;;;;38.25;7.95;;;;;;;30.20;39.74;99938.66;10292484;28;20073;-73
2022/08/31 05:47:15;;;;;;;33.50;8.02;;;;;;;30.34;39.25;99936.72;10293033;28;20117;-74
2022/08/31 05:52:16;;;;;;;43.85;7.63;;;;;;;30.50;39.23;99926.19;10292674;28;20047;-74
2022/08/31 05:57:16;;;;;;;46.70;8.43;;;;;;;30.75;38.52;99927.50;10292806;28;20138;-74
2022/08/31 06:02:17;;;;;;;43.40;7.55;;;;;;;30.98;38.43;99919.28;10291952;28;20126;-74
2022/08/31 06:07:18;;;;;;;45.70;7.70;;;;;;;31.09;38.65;99890.47;10291788;28;20063;-74
2022/08/31 06:12:21;;;;;;;65.55;9.65;;;;;;;31.55;39.62;99916.63;10291579;28;20054;-74
2022/08/31 06:17:23;;;;;;;62.80;8.82;;;;;;;31.83;38.38;99907.00;10291554;28;20065;-74
2022/08/31 06:22:25;;;;;;;51.97;9.20;;;;;;;32.01;38.66;99901.53;10291485;28;20070;-74
2022/08/31 06:27:26;;;;;;;33.80;7.23;;;;;;;31.80;36.97;99840.91;10291223;28;20142;-74
2022/08/31 06:32:27;;;;;;;54.75;9.10;;;;;;;32.44;38.69;99901.59;10291701;28;20054;-73
2022/08/31 06:37:28;;;;;;;40.47;7.38;;;;;;;32.69;37.20;99893.59;10291695;28;20062;-74
2022/08/31 06:42:29;;;;;;;31.38;6.93;;;;;;;32.53;36.35;99845.78;10291632;28;20102;-73
2022/08/31 06:47:30;;;;;;;35.78;7.63;;;;;;;33.10;35.72;99882.03;10290716;28;20471;-73
2022/08/31 06:52:32;;;;;;;31.07;7.20;;;;;;;33.51;35.28;99894.31;10291322;28;20141;-74
2022/08/31 06:57:33;;;;;;;30.13;7.00;;;;;;;33.46;34.73;99864.19;10290683;28;20046;-74
2022/08/31 07:02:33;;;;;;;34.17;7.75;;;;;;;33.92;33.72;99870.69;10291870;28;20035;-74
2022/08/31 07:07:34;;;;;;;31.60;6.60;;;;;;;34.28;33.58;99883.06;10291174;28;20050;-74
2022/08/31 07:12:35;;;;;;;32.80;6.32;;;;;;;34.67;32.70;99891.97;10290806;28;20579;-75
2022/08/31 07:17:36;;;;;;;42.03;6.20;;;;;;;34.53;32.04;99821.34;10292152;28;20082;-72
2022/08/31 07:22:37;;;;;;;48.90;6.82;;;;;;;34.98;31.81;99867.44;10298113;28;20050;-73
2022/08/31 07:27:38;;;;;;;62.10;8.00;;;;;;;35.33;31.85;99867.03;10297930;28;20059;-73
2022/08/31 07:32:40;;;;;;;58.17;7.80;;;;;;;35.40;31.62;99858.94;10297963;28;20054;-73
2022/08/31 07:43:03;;;;;;;18.17;5.00;;;;;;;35.72;29.48;99841.75;10297127;28;20051;-74
2022/08/31 07:48:04;;;;;;;26.20;5.38;;;;;;;36.19;29.21;99850.28;10297545;28;20043;-73
2022/08/31 07:53:07;;;;;;;34.08;6.55;;;;;;;36.32;29.21;99835.25;10296789;28;20043;-74
2022/08/31 07:58:14;;;;;;;35.58;6.05;;;;;;;36.25;28.51;99826.72;10296875;28;20125;-73
2022/08/31 08:03:15;;;;;;;32.20;5.65;;;;;;;35.96;28.43;99769.00;10296895;28;20046;-74
2022/08/31 08:08:21;;;;;;;30.63;6.53;;;;;;;36.23;29.20;99768.22;10296722;28;20045;-73
2022/08/31 08:13:22;;;;;;;28.00;5.28;;;;;;;36.68;28.30;99816.84;10295953;28;20042;-75
2022/08/31 08:18:23;;;;;;;64.63;9.32;;;;;;;36.68;29.58;99767.03;10295707;28;20038;-75
2022/08/31 08:23:25;;;;;;;25.17;6.00;;;;;;;36.67;28.50;99754.34;10296586;28;20093;-74
2022/08/31 08:28:29;;;;;;;;;;;;;;;37.38;28.13;99809.81;10295966;28;20068;-73
2022/08/31 08:33:32;;;;;;;31.33;6.15;;;;;;;37.13;27.89;99807.28;10295760;28;19977;-73
2022/08/31 08:38:37;;;;;;;20.48;5.40;;;;;;;37.14;27.80;99799.78;10295181;28;20082;-73
2022/08/31 08:43:42;;;;;;;24.08;5.38;;;;;;;37.10;26.72;99774.78;10295901;28;20407;-75
2022/08/31 08:48:45;;;;;;;22.35;4.50;;;;;;;37.23;26.69;99786.53;10295484;28;20043;-76
2022/08/31 08:53:50;;;;;;;24.05;4.97;;;;;;;37.42;26.32;99780.22;10294389;28;20415;-75
2022/08/31 08:58:51;;;;;;;25.17;5.60;;;;;;;36.79;26.09;99657.38;10294750;28;20126;-76
2022/08/31 09:04:24;;;;;;;37.07;5.33;;;;;;;37.63;26.29;99768.81;10294654;28;20196;-76
2022/08/31 09:09:44;;;;;;;19.23;4.60;;;;;;;37.60;25.54;99753.72;10293761;28;20043;-77
2022/08/31 09:15:02;;;;;;;43.00;6.80;;;;;;;37.66;26.31;99760.59;10293620;28;20053;-74
2022/08/31 09:20:05;;;;;;;26.27;5.47;;;;;;;37.71;25.84;99730.97;10293851;28;20499;-73
2022/08/31 09:25:07;;;;;;;38.70;6.05;;;;;;;37.43;26.29;99676.56;10293807;28;20495;-74
2022/08/31 09:30:08;;;;;;;26.20;5.22;;;;;;;37.91;25.91;99743.63;10293320;28;20066;-72
2022/08/31 09:35:24;;;;;;;27.98;4.47;;;;;;;37.92;24.60;99734.16;10293845;28;20403;-73
2022/08/31 09:40:42;;;;;;;26.23;4.97;;;;;;;37.83;24.48;99744.66;10292216;28;20035;-75
2022/08/31 09:46:11;;;;;;;33.42;5.45;;;;;;;38.03;25.33;99746.28;10293268;28;20058;-71
2022/08/31 09:51:46;;;;;;;14.70;3.95;;;;;;;38.03;25.24;99746.28;10290715;28;20051;-73
2022/08/31 09:56:53;;;;;;;32.55;5.03;;;;;;;38.00;24.71;99733.16;10270523;28;20415;-70
2022/08/31 10:01:59;;;;;;;28.35;4.45;;;;;;;37.57;24.67;99685.16;10292648;28;20459;-72
2022/08/31 10:07:10;;;;;;;31.73;6.57;;;;;;;37.71;25.77;99668.00;10291752;28;20129;-70
2022/08/31 10:12:20;;;;;;;20.67;4.63;;;;;;;37.93;23.99;99708.03;10292290;28;20046;-73
2022/08/31 10:17:31;;;;;;;29.42;5.43;;;;;;;37.44;25.42;99608.91;10289356;28;20451;-70
2022/08/31 10:22:40;;;;;;;26.98;4.68;;;;;;;37.29;23.64;99591.19;10290670;28;20526;-71
2022/08/31 10:27:57;;;;;;;25.92;4.72;;;;;;;38.18;24.21;99702.97;10290834;28;20050;-73
2022/08/31 10:33:19;;;;;;;21.52;4.47;;;;;;;38.22;24.15;99648.34;10278938;28;20046;-72
2022/08/31 10:38:30;;;;;;;20.65;4.60;;;;;;;38.64;23.84;99702.13;10270290;28;20039;-72
2022/08/31 10:43:37;;;;;;;22.42;5.30;;;;;;;37.99;24.24;99628.94;10276626;28;20035;-72
2022/08/31 10:48:53;;;;;;;25.48;5.03;;;;;;;38.53;25.02;99661.16;10269724;28;20123;-72
2022/08/31 10:54:02;;;;;;;32.25;4.88;;;;;;;38.56;23.44;99671.50;10286301;28;20039;-72
2022/08/31 10:59:33;;;;;;;18.73;4.63;;;;;;;38.50;23.17;99659.13;10299777;28;20054;-72
2022/08/31 11:05:00;;;;;;;16.50;4.57;;;;;;;38.46;23.25;99666.59;10297292;28;20042;-74
2022/08/31 11:10:19;;;;;;;20.65;4.80;;;;;;;38.68;22.94;99661.34;10258962;28;20130;-73
2022/08/31 11:15:57;;;;;;;20.45;4.10;;;;;;;38.71;23.27;99663.38;10259085;28;20075;-73
2022/08/31 11:21:17;;;;;;;19.80;4.43;;;;;;;38.64;22.45;99652.97;10277534;28;20043;-72
2022/08/31 11:26:27;;;;;;;31.58;4.85;;;;;;;38.58;23.10;99646.16;10279960;28;20034;-72
2022/08/31 11:31:32;;;;;;;17.05;4.13;;;;;;;38.44;22.17;99623.72;10273237;28;20117;-73
2022/08/31 11:36:59;;;;;;;54.33;5.03;;;;;;;38.50;22.43;99589.75;10278559;28;20035;-74
2022/08/31 11:42:21;;;;;;;17.88;4.00;;;;;;;38.87;22.34;99630.72;10296384;28;20074;-73
2022/08/31 11:47:28;;;;;;;13.23;3.90;;;;;;;38.89;21.29;99628.38;10297386;28;20038;-73
2022/08/31 11:52:52;;;;;;;21.75;4.32;;;;;;;38.87;21.96;99622.41;10295401;28;20053;-73
2022/08/31 11:58:05;;;;;;;11.77;3.25;;;;;;;38.90;21.69;99621.66;10296913;28;20038;-73
2022/08/31 12:03:08;;;;;;;19.33;3.80;;;;;;;38.82;21.12;99611.59;10292915;28;20125;-72
2022/08/31 12:08:14;;;;;;;23.55;4.38;;;;;;;38.65;21.83;99612.13;10282810;28;20137;-71
2022/08/31 12:13:36;;;;;;;27.10;4.43;;;;;;;38.58;21.80;99591.44;10295441;28;20219;-72
2022/08/31 12:18:48;;;;;;;21.05;4.30;;;;;;;38.62;20.67;99610.13;10291286;28;20057;-72
2022/08/31 12:24:30;;;;;;;17.80;3.95;;;;;;;38.17;20.23;99534.13;10258781;28;20039;-73
2022/08/31 12:29:37;;;;;;;20.92;4.10;;;;;;;38.57;20.51;99603.72;10268575;28;20487;-72
2022/08/31 12:35:05;;;;;;;27.83;5.10;;;;;;;38.66;20.93;99602.66;10295523;28;20049;-73
2022/08/31 12:40:15;;;;;;;16.85;4.40;;;;;;;38.75;20.21;99608.72;10285208;28;20058;-72
2022/08/31 12:45:16;;;;;;;15.40;3.58;;;;;;;38.32;20.28;99535.94;10282897;28;20043;-72
2022/08/31 12:50:27;;;;;;;19.70;3.55;;;;;;;38.59;19.32;99595.84;10280502;28;20055;-73
2022/08/31 12:55:54;;;;;;;24.07;4.70;;;;;;;38.69;20.07;99599.91;10269320;28;20624;-72
2022/08/31 13:01:11;;;;;;;10.68;3.53;;;;;;;38.12;19.67;99535.28;10275787;28;20443;-72
2022/08/31 13:06:21;;;;;;;14.70;3.67;;;;;;;38.44;19.15;99594.00;10271574;28;20046;-73
2022/08/31 13:11:34;;;;;;;12.93;3.33;;;;;;;38.51;19.77;99596.91;10272914;28;20093;-73
2022/08/31 13:16:39;;;;;;;30.83;4.55;;;;;;;38.29;20.73;99583.84;10271511;28;20533;-73
2022/08/31 13:21:40;;;;;;;23.25;4.43;;;;;;;37.72;20.81;99516.38;10259289;28;20066;-72
2022/08/31 13:26:42;;;;;;;38.90;5.10;;;;;;;37.96;21.57;99577.00;10253789;29;20526;-71
2022/08/31 13:31:49;;;;;;;27.10;4.88;;;;;;;37.85;22.28;99593.44;10254026;28;20478;-72
2022/08/31 13:36:58;;;;;;;34.95;4.78;;;;;;;37.81;22.01;99589.00;10253487;28;20094;-72
2022/08/31 13:42:23;;;;;;;26.75;5.20;;;;;;;37.81;22.56;99594.53;10253070;28;20070;-72
2022/08/31 13:47:29;;;;;;;27.08;4.60;;;;;;;37.62;22.65;99582.34;10253306;28;20050;-72
2022/08/31 13:52:30;;;;;;;28.35;5.70;;;;;;;37.53;22.92;99584.56;10291087;28;20047;-72
2022/08/31 13:57:34;;;;;;;22.17;3.97;;;;;;;37.42;23.17;99581.53;10287996;28;20050;-74
2022/08/31 14:02:37;;;;;;;23.75;4.63;;;;;;;37.04;23.09;99535.34;10271995;28;20038;-73
2022/08/31 14:07:42;;;;;;;40.30;5.20;;;;;;;37.22;23.41;99583.56;10272470;28;20045;-72
2022/08/31 14:12:50;;;;;;;32.95;4.85;;;;;;;36.99;24.17;99575.19;10272691;28;20039;-72
2022/08/31 14:18:00;;;;;;;19.25;4.07;;;;;;;36.54;23.27;99517.69;10272637;28;20047;-71
2022/08/31 14:23:50;;;;;;;33.97;5.63;;;;;;;36.89;24.71;99583.25;10270333;28;20093;-71
2022/08/31 14:28:54;;;;;;;25.90;4.97;;;;;;;36.48;25.04;99566.94;10223761;29;20543;-72
2022/08/31 14:34:18;;;;;;;44.80;6.43;;;;;;;36.10;24.87;99524.19;10272876;28;20078;-71
2022/08/31 14:39:37;;;;;;;35.80;5.45;;;;;;;36.23;25.63;99596.78;10291493;28;20053;-71
2022/08/31 14:44:41;;;;;;;30.73;5.90;;;;;;;36.03;25.52;99589.56;10292016;28;20043;-72
2022/08/31 14:49:44;;;;;;;30.25;5.57;;;;;;;35.61;25.99;99543.91;10291591;28;20046;-72
2022/08/31 14:54:46;;;;;;;35.72;4.78;;;;;;;35.14;26.27;99510.66;10290658;28;20049;-70
2022/08/31 14:59:50;;;;;;;79.05;6.70;;;;;;;34.94;27.15;99509.69;10290738;28;20039;-71
2022/08/31 15:04:51;;;;;;;17.55;4.10;;;;;;;35.16;27.46;99580.16;10290330;28;20038;-72
2022/08/31 15:09:52;;;;;;;35.80;5.13;;;;;;;34.58;27.76;99516.16;10290986;28;20517;-71
2022/08/31 15:14:59;;;;;;;109.05;9.75;;;;;;;34.71;28.45;99581.19;10291159;28;20071;-71
2022/08/31 15:20:02;;;;;;;22.80;4.63;;;;;;;34.54;28.93;99591.31;10290585;28;20430;-71
2022/08/31 15:25:03;;;;;;;22.75;4.35;;;;;;;34.27;28.80;99573.50;10290097;28;20122;-71
2022/08/31 15:30:07;;;;;;;35.67;5.67;;;;;;;34.11;28.74;99577.31;10290257;28;20534;-70
2022/08/31 15:35:13;;;;;;;39.92;23.83;;;;;;;34.00;29.21;99586.00;10291264;28;20074;-71
2022/08/31 15:40:13;;;;;;;107.65;66.43;;;;;;;33.93;29.29;99594.03;10294409;28;20053;-70
2022/08/31 15:45:15;;;;;;;64.00;32.38;;;;;;;33.72;29.22;99587.81;10296958;28;20491;-70
2022/08/31 15:50:18;;;;;;;112.57;49.58;;;;;;;33.69;29.58;99594.00;10295621;28;20038;-71
2022/08/31 15:55:22;;;;;;;61.70;15.35;;;;;;;33.33;30.16;99590.78;10297401;28;20121;-71
2022/08/31 16:00:24;;;;;;;65.00;25.45;;;;;;;32.62;30.80;99528.41;10296822;28;20050;-71
2022/08/31 16:05:27;;;;;;;64.30;17.90;;;;;;;33.00;30.29;99618.25;10297239;28;20050;-70
2022/08/31 16:10:29;;;;;;;46.72;16.30;;;;;;;32.79;31.28;99639.41;10296917;28;20043;-68
2022/08/31 16:15:32;;;;;;;52.53;11.88;;;;;;;31.80;31.74;99514.94;10294083;28;20074;-71
2022/08/31 16:20:33;;;;;;;28.90;8.23;;;;;;;32.17;31.98;99607.88;10285433;28;20047;-71
2022/08/31 16:25:34;;;;;;;39.05;11.30;;;;;;;32.25;31.67;99643.56;10270532;28;20038;-71
2022/08/31 16:30:35;;;;;;;33.92;15.27;;;;;;;32.13;31.94;99642.63;10272220;28;20186;-71
2022/08/31 16:35:36;;;;;;;34.45;11.38;;;;;;;31.91;31.89;99627.19;10278243;28;20058;-71
2022/08/31 16:40:37;;;;;;;30.75;10.10;;;;;;;32.02;31.92;99637.50;10294903;28;20062;-71
2022/08/31 16:45:39;;;;;;;44.97;8.60;;;;;;;31.82;31.84;99628.00;10295405;28;20388;-73
2022/08/31 16:50:46;;;;;;;30.70;8.10;;;;;;;31.47;32.45;99596.25;10294412;28;20047;-69
2022/08/31 16:55:47;;;;;;;20.60;6.10;;;;;;;31.22;32.49;99590.44;10295238;28;20057;-70
2022/08/31 17:00:48;;;;;;;19.33;5.40;;;;;;;31.59;32.48;99660.38;10294414;28;20150;-68
2022/08/31 17:05:51;;;;;;;23.50;5.70;;;;;;;31.44;32.71;99658.13;10294622;28;20043;-69
2022/08/31 17:10:53;;;;;;;24.10;6.57;;;;;;;31.42;32.55;99656.81;10294111;28;20502;-69
2022/08/31 17:15:53;;;;;;;26.65;5.95;;;;;;;31.23;33.34;99670.81;10294122;28;20043;-69
2022/08/31 17:20:56;;;;;;;26.13;4.95;;;;;;;30.94;33.52;99661.28;10290761;28;20039;-70
2022/08/31 17:25:56;;;;;;;21.65;5.47;;;;;;;31.03;33.42;99680.50;10293919;28;20053;-70
2022/08/31 17:31:00;;;;;;;24.15;8.75;;;;;;;30.87;33.04;99656.28;10291130;28;20059;-70
2022/08/31 17:36:01;;;;;;;40.03;6.00;;;;;;;30.86;33.54;99673.03;10293497;28;20089;-70
2022/08/31 17:41:08;;;;;;;25.95;5.75;;;;;;;30.11;34.19;99557.03;10292220;28;20038;-70
2022/08/31 17:46:11;;;;;;;28.48;5.05;;;;;;;30.71;33.72;99664.09;10293037;28;20121;-71
2022/08/31 17:51:25;;;;;;;24.05;4.95;;;;;;;30.27;34.08;99591.13;10292873;28;21121;-70
2022/08/31 17:56:33;;;;;;;31.50;5.75;;;;;;;30.54;33.54;99646.81;10290002;28;20108;-71
2022/08/31 18:01:34;;;;;;;32.08;5.63;;;;;;;30.40;34.44;99653.22;10292211;28;20499;-71
2022/08/31 18:06:36;;;;;;;27.83;5.32;;;;;;;30.09;35.78;99646.94;10292661;28;20050;-71
2022/08/31 18:11:44;;;;;;;19.67;4.82;;;;;;;29.55;35.62;99584.75;10292163;28;20051;-70
2022/08/31 18:16:46;;;;;;;21.83;4.60;;;;;;;29.65;35.87;99632.22;10273394;28;20043;-71
2022/08/31 18:21:47;;;;;;;;;;;;;;;29.90;35.84;99653.44;10269683;28;20053;-71
2022/08/31 18:26:50;;;;;;;17.70;3.63;;;;;;;29.19;36.91;99606.72;10271104;28;19921;-71
2022/08/31 18:31:55;;;;;;;23.58;5.95;;;;;;;29.23;37.49;99631.56;10268257;28;20149;-70
2022/08/31 18:36:58;;;;;;;22.20;5.40;;;;;;;28.94;37.71;99580.78;10273796;28;20078;-72
2022/08/31 18:47:20;;;;;;;29.77;8.77;;;;;;;28.64;39.08;99565.88;10268687;28;20050;-72
2022/08/31 18:52:21;;;;;;;36.88;7.82;;;;;;;28.40;38.31;99552.44;10270478;28;20502;-71
2022/08/31 18:57:25;;;;;;;32.55;8.68;;;;;;;28.84;37.51;99627.50;10268712;28;20122;-70
2022/08/31 19:02:26;;;;;;;28.00;9.60;;;;;;;29.04;36.83;99618.84;10269972;28;20037;-71
2022/08/31 19:07:27;;;;;;;44.65;9.93;;;;;;;29.02;37.78;99623.81;10269811;28;20031;-70
2022/08/31 19:12:28;;;;;;;34.50;7.90;;;;;;;28.89;37.37;99608.22;10269951;28;20046;-71
2022/08/31 19:17:29;;;;;;;28.25;7.63;;;;;;;28.53;37.57;99553.53;10297646;28;20093;-70
2022/08/31 19:22:30;;;;;;;25.25;7.03;;;;;;;28.63;38.20;99633.38;10297995;28;20047;-72
2022/08/31 19:27:32;;;;;;;24.50;6.07;;;;;;;28.15;39.65;99611.09;10297069;28;20035;-71
2022/08/31 19:32:35;;;;;;;25.63;6.53;;;;;;;27.92;41.21;99629.28;10298056;28;20046;-69
2022/08/31 19:37:37;;;;;;;24.30;6.38;;;;;;;28.04;39.18;99623.34;10297921;28;20053;-70
2022/08/31 19:42:38;;;;;;;27.43;7.37;;;;;;;27.70;37.73;99497.03;10297266;28;20096;-70
2022/08/31 19:47:39;;;;;;;13.27;4.68;;;;;;;28.76;37.24;99623.53;10297505;28;20045;-71
2022/08/31 19:52:41;;;;;;;15.23;4.90;;;;;;;28.81;36.00;99590.63;10297203;28;20045;-71
2022/08/31 19:57:42;;;;;;;14.93;4.72;;;;;;;29.03;35.70;99600.81;10296095;28;20043;-71
2022/08/31 20:02:43;;;;;;;18.23;4.10;;;;;;;28.85;37.72;99605.28;10296700;28;20047;-72
2022/08/31 20:07:44;;;;;;;17.20;4.55;;;;;;;28.06;40.15;99577.41;10296048;28;20039;-72
2022/08/31 20:12:45;;;;;;;19.95;4.57;;;;;;;27.77;42.09;99631.13;10296621;28;20053;-71
2022/08/31 20:17:47;;;;;;;15.93;4.82;;;;;;;27.37;43.80;99623.63;10296561;28;20051;-72
2022/08/31 20:22:48;;;;;;;16.17;4.95;;;;;;;26.98;44.63;99603.75;10295769;28;20126;-71
2022/08/31 20:27:48;;;;;;;18.92;4.22;;;;;;;26.86;45.68;99615.09;10295605;28;20149;-71
2022/08/31 20:32:49;;;;;;;49.05;6.20;;;;;;;26.68;46.73;99618.56;10296191;28;20125;-71
2022/08/31 20:37:50;;;;;;;20.77;4.65;;;;;;;26.53;45.97;99611.41;10295695;28;20499;-71
2022/08/31 20:42:52;;;;;;;17.60;4.75;;;;;;;26.37;46.03;99618.13;10295145;28;20073;-71
2022/08/31 20:53:13;;;;;;;15.32;4.25;;;;;;;26.02;47.40;99616.59;10295157;28;20549;-71
2022/08/31 20:58:14;;;;;;;27.60;5.68;;;;;;;25.87;48.92;99615.66;10294486;28;20043;-71
2022/08/31 21:03:15;;;;;;;24.70;4.60;;;;;;;25.78;49.14;99603.75;10295105;28;20074;-71
2022/08/31 21:08:16;;;;;;;19.15;4.22;;;;;;;25.37;49.56;99557.91;10294608;28;20576;-71
2022/08/31 21:13:17;;;;;;;28.25;5.85;;;;;;;25.11;50.67;99529.25;10294447;28;20093;-71
2022/08/31 21:18:17;;;;;;;28.80;5.07;;;;;;;24.96;51.14;99522.84;10294153;28;20062;-71
2022/08/31 21:23:18;;;;;;;17.80;4.53;;;;;;;25.20;50.69;99571.06;10293635;28;20038;-71
2022/08/31 21:28:19;;;;;;;23.52;5.00;;;;;;;25.23;51.17;99590.34;10294178;28;20059;-71
2022/08/31 21:33:20;;;;;;;18.02;4.78;;;;;;;25.18;51.02;99584.94;10292978;28;20066;-71
2022/08/31 21:38:21;;;;;;;16.83;4.90;;;;;;;25.05;51.51;99574.69;10292017;28;20050;-71
2022/08/31 21:43:22;;;;;;;24.70;4.95;;;;;;;24.99;51.58;99567.66;10293273;28;20049;-71
2022/08/31 21:48:22;;;;;;;21.05;4.63;;;;;;;24.88;52.24;99568.81;10293013;28;20138;-71
2022/08/31 21:53:25;;;;;;;32.10;5.45;;;;;;;24.40;53.19;99506.06;10292950;28;20495;-71
2022/08/31 21:58:28;;;;;;;28.80;5.70;;;;;;;24.70;53.09;99564.84;10292872;28;20074;-71
2022/08/31 22:03:34;;;;;;;22.13;4.85;;;;;;;24.54;53.44;99569.56;10292798;28;20101;-71
2022/08/31 22:08:36;;;;;;;22.60;4.95;;;;;;;24.53;54.55;99574.19;10292759;28;20039;-72
2022/08/31 22:13:39;;;;;;;17.00;4.63;;;;;;;23.70;54.85;99447.22;10291728;28;20078;-71
2022/08/31 22:18:45;;;;;;;18.02;4.90;;;;;;;24.29;56.43;99546.84;10292156;28;20038;-71
2022/08/31 22:23:46;;;;;;;15.27;4.55;;;;;;;24.37;56.43;99553.56;10291803;28;20053;-71
2022/08/31 22:28:47;;;;;;;19.35;4.72;;;;;;;24.18;56.85;99545.25;10291596;28;20086;-71
2022/08/31 22:33:48;;;;;;;26.48;5.68;;;;;;;24.14;57.97;99561.28;10291762;28;20070;-71
2022/08/31 22:38:50;;;;;;;28.08;5.10;;;;;;;24.07;59.21;99565.38;10291566;28;20150;-71
2022/08/31 22:43:51;;;;;;;17.65;4.70;;;;;;;23.93;59.72;99548.84;10292206;28;20047;-71
2022/08/31 22:48:52;;;;;;;28.30;5.80;;;;;;;23.93;59.69;99556.97;10294851;28;20106;-71
2022/08/31 22:53:52;;;;;;;20.58;4.65;;;;;;;23.04;60.22;99445.44;10299372;28;20053;-71
2022/08/31 22:59:00;;;;;;;20.73;4.75;;;;;;;23.57;61.89;99546.19;10298908;28;20065;-71
2022/08/31 23:04:06;;;;;;;13.52;4.90;;;;;;;23.50;61.51;99553.78;10298875;28;20495;-71
2022/08/31 23:09:09;;;;;;;23.30;4.97;;;;;;;23.42;61.30;99562.44;10299284;28;20043;-71
2022/08/31 23:14:11;;;;;;;16.67;5.10;;;;;;;23.36;61.05;99574.38;10299139;28;20117;-71
2022/08/31 23:19:15;;;;;;;18.58;4.90;;;;;;;22.71;62.02;99496.31;10299134;28;20053;-71
2022/08/31 23:24:20;;;;;;;23.20;5.43;;;;;;;23.14;62.99;99580.88;10297814;28;20101;-71
2022/08/31 23:29:21;;;;;;;20.58;5.88;;;;;;;23.03;61.88;99557.56;10297956;28;20070;-71
2022/08/31 23:34:22;;;;;;;19.52;5.28;;;;;;;23.10;62.49;99581.69;10298830;28;20418;-71
2022/08/31 23:39:24;;;;;;;18.92;5.80;;;;;;;23.11;62.34;99584.13;10297563;28;20043;-71